sensor_id;sensor_type;location;lat;lon;timestamp;temperature;humidity
2389;DHT22;1205;47.984;7.668;2022-07-09T00:01:01;18.00;88.10
2389;DHT22;1205;47.984;7.668;2022-07-09T00:03:26;18.00;88.80
2389;DHT22;1205;47.984;7.668;2022-07-09T00:05:52;18.00;86.70
2389;DHT22;1205;47.984;7.668;2022-07-09T00:08:18;18.10;84.90
2389;DHT22;1205;47.984;7.668;2022-07-09T00:10:43;18.20;84.20
2389;DHT22;1205;47.984;7.668;2022-07-09T00:13:09;18.20;83.80
2389;DHT22;1205;47.984;7.668;2022-07-09T00:15:36;18.10;83.60
2389;DHT22;1205;47.984;7.668;2022-07-09T00:18:01;18.10;83.60
2389;DHT22;1205;47.984;7.668;2022-07-09T00:20:27;18.20;83.40
2389;DHT22;1205;47.984;7.668;2022-07-09T00:22:53;18.30;83.60
2389;DHT22;1205;47.984;7.668;2022-07-09T00:25:19;18.40;84.00
2389;DHT22;1205;47.984;7.668;2022-07-09T00:27:44;18.30;85.00
2389;DHT22;1205;47.984;7.668;2022-07-09T00:30:10;18.30;86.00
2389;DHT22;1205;47.984;7.668;2022-07-09T00:32:36;18.20;87.20
2389;DHT22;1205;47.984;7.668;2022-07-09T00:35:02;18.20;88.10
2389;DHT22;1205;47.984;7.668;2022-07-09T00:37:28;18.10;89.80
2389;DHT22;1205;47.984;7.668;2022-07-09T00:39:53;18.10;90.00
2389;DHT22;1205;47.984;7.668;2022-07-09T00:42:19;17.90;90.40
2389;DHT22;1205;47.984;7.668;2022-07-09T00:44:45;17.80;90.20
2389;DHT22;1205;47.984;7.668;2022-07-09T00:47:12;17.70;90.20
2389;DHT22;1205;47.984;7.668;2022-07-09T00:49:42;17.70;88.40
2389;DHT22;1205;47.984;7.668;2022-07-09T00:52:11;17.80;88.70
2389;DHT22;1205;47.984;7.668;2022-07-09T00:54:38;17.70;87.40
2389;DHT22;1205;47.984;7.668;2022-07-09T00:57:06;17.80;85.80
2389;DHT22;1205;47.984;7.668;2022-07-09T00:59:34;17.80;86.00
2389;DHT22;1205;47.984;7.668;2022-07-09T01:02:00;17.80;87.00
2389;DHT22;1205;47.984;7.668;2022-07-09T01:04:26;17.60;88.60
2389;DHT22;1205;47.984;7.668;2022-07-09T01:06:52;17.70;89.60
2389;DHT22;1205;47.984;7.668;2022-07-09T01:09:17;17.70;90.10
2389;DHT22;1205;47.984;7.668;2022-07-09T01:11:43;17.60;88.80
2389;DHT22;1205;47.984;7.668;2022-07-09T01:14:09;17.50;90.00
2389;DHT22;1205;47.984;7.668;2022-07-09T01:16:36;17.30;90.30
2389;DHT22;1205;47.984;7.668;2022-07-09T01:19:03;17.20;90.60
2389;DHT22;1205;47.984;7.668;2022-07-09T01:21:29;17.00;91.10
2389;DHT22;1205;47.984;7.668;2022-07-09T01:23:55;17.00;91.80
2389;DHT22;1205;47.984;7.668;2022-07-09T01:26:23;16.90;91.30
2389;DHT22;1205;47.984;7.668;2022-07-09T01:28:49;16.80;92.00
2389;DHT22;1205;47.984;7.668;2022-07-09T01:31:15;16.60;92.50
2389;DHT22;1205;47.984;7.668;2022-07-09T01:33:41;16.60;93.00
2389;DHT22;1205;47.984;7.668;2022-07-09T01:36:10;16.60;92.90
2389;DHT22;1205;47.984;7.668;2022-07-09T01:38:36;16.60;93.60
2389;DHT22;1205;47.984;7.668;2022-07-09T01:41:02;16.60;93.20
2389;DHT22;1205;47.984;7.668;2022-07-09T01:43:28;16.60;93.20
2389;DHT22;1205;47.984;7.668;2022-07-09T01:45:54;16.50;93.40
2389;DHT22;1205;47.984;7.668;2022-07-09T01:48:19;16.50;93.50
2389;DHT22;1205;47.984;7.668;2022-07-09T01:50:45;16.50;94.00
2389;DHT22;1205;47.984;7.668;2022-07-09T01:53:11;16.50;93.10
2389;DHT22;1205;47.984;7.668;2022-07-09T01:55:37;16.50;93.10
2389;DHT22;1205;47.984;7.668;2022-07-09T01:58:02;16.50;93.10
2389;DHT22;1205;47.984;7.668;2022-07-09T02:00:28;16.50;93.20
2389;DHT22;1205;47.984;7.668;2022-07-09T02:02:55;16.40;93.30
2389;DHT22;1205;47.984;7.668;2022-07-09T02:05:21;16.40;93.80
2389;DHT22;1205;47.984;7.668;2022-07-09T02:07:47;16.40;93.40
2389;DHT22;1205;47.984;7.668;2022-07-09T02:10:12;16.40;93.50
2389;DHT22;1205;47.984;7.668;2022-07-09T02:12:39;16.30;93.30
2389;DHT22;1205;47.984;7.668;2022-07-09T02:15:05;16.30;93.90
2389;DHT22;1205;47.984;7.668;2022-07-09T02:17:32;16.30;93.70
2389;DHT22;1205;47.984;7.668;2022-07-09T02:19:58;16.20;93.70
2389;DHT22;1205;47.984;7.668;2022-07-09T02:22:24;16.00;94.10
2389;DHT22;1205;47.984;7.668;2022-07-09T02:24:50;16.20;94.10
2389;DHT22;1205;47.984;7.668;2022-07-09T02:27:15;16.00;94.30
2389;DHT22;1205;47.984;7.668;2022-07-09T02:29:41;15.90;94.40
2389;DHT22;1205;47.984;7.668;2022-07-09T02:32:07;15.90;94.50
2389;DHT22;1205;47.984;7.668;2022-07-09T02:34:36;15.90;94.40
2389;DHT22;1205;47.984;7.668;2022-07-09T02:37:02;15.70;94.50
2389;DHT22;1205;47.984;7.668;2022-07-09T02:39:27;15.70;94.50
2389;DHT22;1205;47.984;7.668;2022-07-09T02:41:53;15.80;94.60
2389;DHT22;1205;47.984;7.668;2022-07-09T02:44:19;15.80;94.60
2389;DHT22;1205;47.984;7.668;2022-07-09T02:46:45;15.70;94.50
2389;DHT22;1205;47.984;7.668;2022-07-09T02:49:10;15.60;94.80
2389;DHT22;1205;47.984;7.668;2022-07-09T02:51:36;15.60;94.80
2389;DHT22;1205;47.984;7.668;2022-07-09T02:54:02;15.60;95.10
2389;DHT22;1205;47.984;7.668;2022-07-09T02:56:28;15.50;95.30
2389;DHT22;1205;47.984;7.668;2022-07-09T02:58:54;15.50;95.30
2389;DHT22;1205;47.984;7.668;2022-07-09T03:01:19;15.40;95.50
2389;DHT22;1205;47.984;7.668;2022-07-09T03:03:45;15.50;95.90
2389;DHT22;1205;47.984;7.668;2022-07-09T03:06:11;15.50;96.10
2389;DHT22;1205;47.984;7.668;2022-07-09T03:08:38;15.50;95.80
2389;DHT22;1205;47.984;7.668;2022-07-09T03:11:04;15.60;96.00
2389;DHT22;1205;47.984;7.668;2022-07-09T03:13:33;15.50;95.80
2389;DHT22;1205;47.984;7.668;2022-07-09T03:15:59;15.50;95.60
2389;DHT22;1205;47.984;7.668;2022-07-09T03:18:25;15.40;95.90
2389;DHT22;1205;47.984;7.668;2022-07-09T03:20:50;15.30;96.00
2389;DHT22;1205;47.984;7.668;2022-07-09T03:23:16;15.30;96.10
2389;DHT22;1205;47.984;7.668;2022-07-09T03:25:42;15.20;96.10
2389;DHT22;1205;47.984;7.668;2022-07-09T03:28:09;15.10;96.40
2389;DHT22;1205;47.984;7.668;2022-07-09T03:30:35;15.10;96.40
2389;DHT22;1205;47.984;7.668;2022-07-09T03:33:00;15.10;96.60
2389;DHT22;1205;47.984;7.668;2022-07-09T03:35:26;14.90;96.80
2389;DHT22;1205;47.984;7.668;2022-07-09T03:37:52;14.80;97.10
2389;DHT22;1205;47.984;7.668;2022-07-09T03:40:18;14.70;97.20
2389;DHT22;1205;47.984;7.668;2022-07-09T03:42:43;14.70;97.30
2389;DHT22;1205;47.984;7.668;2022-07-09T03:45:10;14.70;97.30
2389;DHT22;1205;47.984;7.668;2022-07-09T03:47:35;14.60;97.40
2389;DHT22;1205;47.984;7.668;2022-07-09T03:50:01;14.50;97.60
2389;DHT22;1205;47.984;7.668;2022-07-09T03:52:27;14.50;97.80
2389;DHT22;1205;47.984;7.668;2022-07-09T03:54:53;14.50;98.00
2389;DHT22;1205;47.984;7.668;2022-07-09T03:57:19;14.50;98.10
2389;DHT22;1205;47.984;7.668;2022-07-09T03:59:44;14.50;98.20
2389;DHT22;1205;47.984;7.668;2022-07-09T04:02:10;14.50;98.00
2389;DHT22;1205;47.984;7.668;2022-07-09T04:04:36;14.60;98.00
2389;DHT22;1205;47.984;7.668;2022-07-09T04:07:02;14.70;97.90
2389;DHT22;1205;47.984;7.668;2022-07-09T04:09:27;14.50;98.30
2389;DHT22;1205;47.984;7.668;2022-07-09T04:11:53;14.40;98.40
2389;DHT22;1205;47.984;7.668;2022-07-09T04:14:19;14.40;98.40
2389;DHT22;1205;47.984;7.668;2022-07-09T04:16:45;14.50;98.60
2389;DHT22;1205;47.984;7.668;2022-07-09T04:19:12;14.70;98.40
2389;DHT22;1205;47.984;7.668;2022-07-09T04:21:37;14.70;98.70
2389;DHT22;1205;47.984;7.668;2022-07-09T04:24:03;14.80;98.00
2389;DHT22;1205;47.984;7.668;2022-07-09T04:26:29;14.70;98.20
2389;DHT22;1205;47.984;7.668;2022-07-09T04:28:55;14.70;98.10
2389;DHT22;1205;47.984;7.668;2022-07-09T04:31:20;14.50;98.50
2389;DHT22;1205;47.984;7.668;2022-07-09T04:33:47;14.60;98.50
2389;DHT22;1205;47.984;7.668;2022-07-09T04:36:13;14.60;98.60
2389;DHT22;1205;47.984;7.668;2022-07-09T04:38:39;14.50;98.60
2389;DHT22;1205;47.984;7.668;2022-07-09T04:41:05;14.60;98.70
2389;DHT22;1205;47.984;7.668;2022-07-09T04:43:31;14.60;98.80
2389;DHT22;1205;47.984;7.668;2022-07-09T04:45:57;14.80;99.00
2389;DHT22;1205;47.984;7.668;2022-07-09T04:48:23;15.10;98.40
2389;DHT22;1205;47.984;7.668;2022-07-09T04:50:49;15.60;98.20
2389;DHT22;1205;47.984;7.668;2022-07-09T04:53:15;16.10;97.70
2389;DHT22;1205;47.984;7.668;2022-07-09T04:55:41;16.70;96.20
2389;DHT22;1205;47.984;7.668;2022-07-09T04:58:07;17.20;95.40
2389;DHT22;1205;47.984;7.668;2022-07-09T05:00:32;17.70;94.40
2389;DHT22;1205;47.984;7.668;2022-07-09T05:03:01;18.10;93.40
2389;DHT22;1205;47.984;7.668;2022-07-09T05:05:27;18.30;93.50
2389;DHT22;1205;47.984;7.668;2022-07-09T05:07:53;18.60;92.80
2389;DHT22;1205;47.984;7.668;2022-07-09T05:10:19;18.80;92.20
2389;DHT22;1205;47.984;7.668;2022-07-09T05:12:45;18.90;91.80
2389;DHT22;1205;47.984;7.668;2022-07-09T05:15:11;19.00;91.10
2389;DHT22;1205;47.984;7.668;2022-07-09T05:17:38;18.90;90.90
2389;DHT22;1205;47.984;7.668;2022-07-09T05:20:06;19.50;90.70
2389;DHT22;1205;47.984;7.668;2022-07-09T05:22:33;19.60;90.80
2389;DHT22;1205;47.984;7.668;2022-07-09T05:24:59;20.10;90.20
2389;DHT22;1205;47.984;7.668;2022-07-09T05:27:26;20.50;89.70
2389;DHT22;1205;47.984;7.668;2022-07-09T05:29:52;20.50;89.60
2389;DHT22;1205;47.984;7.668;2022-07-09T05:32:18;20.40;90.00
2389;DHT22;1205;47.984;7.668;2022-07-09T05:34:43;20.60;90.00
2389;DHT22;1205;47.984;7.668;2022-07-09T05:37:09;21.10;88.30
2389;DHT22;1205;47.984;7.668;2022-07-09T05:39:35;21.50;87.40
2389;DHT22;1205;47.984;7.668;2022-07-09T05:42:01;21.80;87.20
2389;DHT22;1205;47.984;7.668;2022-07-09T05:44:27;22.10;86.80
2389;DHT22;1205;47.984;7.668;2022-07-09T05:46:53;21.90;83.70
2389;DHT22;1205;47.984;7.668;2022-07-09T05:49:18;20.70;86.10
2389;DHT22;1205;47.984;7.668;2022-07-09T05:51:44;21.00;87.90
2389;DHT22;1205;47.984;7.668;2022-07-09T05:54:14;21.50;85.40
2389;DHT22;1205;47.984;7.668;2022-07-09T05:56:39;21.70;84.80
2389;DHT22;1205;47.984;7.668;2022-07-09T05:59:07;21.90;83.40
2389;DHT22;1205;47.984;7.668;2022-07-09T06:01:32;21.80;83.40
2389;DHT22;1205;47.984;7.668;2022-07-09T06:03:58;22.10;82.90
2389;DHT22;1205;47.984;7.668;2022-07-09T06:06:24;22.50;82.50
2389;DHT22;1205;47.984;7.668;2022-07-09T06:08:50;22.90;82.60
2389;DHT22;1205;47.984;7.668;2022-07-09T06:11:16;23.70;81.30
2389;DHT22;1205;47.984;7.668;2022-07-09T06:13:42;24.10;80.90
2389;DHT22;1205;47.984;7.668;2022-07-09T06:16:07;24.50;79.50
2389;DHT22;1205;47.984;7.668;2022-07-09T06:18:33;24.30;78.40
2389;DHT22;1205;47.984;7.668;2022-07-09T06:20:59;24.40;79.20
2389;DHT22;1205;47.984;7.668;2022-07-09T06:23:26;24.80;76.90
2389;DHT22;1205;47.984;7.668;2022-07-09T06:25:52;25.00;77.30
2389;DHT22;1205;47.984;7.668;2022-07-09T06:28:18;25.30;76.10
2389;DHT22;1205;47.984;7.668;2022-07-09T06:30:43;25.80;75.70
2389;DHT22;1205;47.984;7.668;2022-07-09T06:33:09;25.60;75.10
2389;DHT22;1205;47.984;7.668;2022-07-09T06:35:35;24.90;74.70
2389;DHT22;1205;47.984;7.668;2022-07-09T06:38:00;25.30;74.70
2389;DHT22;1205;47.984;7.668;2022-07-09T06:40:26;25.70;73.20
2389;DHT22;1205;47.984;7.668;2022-07-09T06:42:52;26.00;74.80
2389;DHT22;1205;47.984;7.668;2022-07-09T06:45:18;26.60;73.80
2389;DHT22;1205;47.984;7.668;2022-07-09T06:47:44;26.30;71.30
2389;DHT22;1205;47.984;7.668;2022-07-09T06:50:09;25.70;72.40
2389;DHT22;1205;47.984;7.668;2022-07-09T06:52:35;26.10;71.60
2389;DHT22;1205;47.984;7.668;2022-07-09T06:55:01;26.00;71.60
2389;DHT22;1205;47.984;7.668;2022-07-09T06:57:26;26.00;71.00
2389;DHT22;1205;47.984;7.668;2022-07-09T06:59:54;26.60;71.40
2389;DHT22;1205;47.984;7.668;2022-07-09T07:02:20;27.00;69.00
2389;DHT22;1205;47.984;7.668;2022-07-09T07:04:45;27.20;69.60
2389;DHT22;1205;47.984;7.668;2022-07-09T07:07:11;26.50;70.50
2389;DHT22;1205;47.984;7.668;2022-07-09T07:09:37;26.30;70.40
2389;DHT22;1205;47.984;7.668;2022-07-09T07:12:03;26.50;69.80
2389;DHT22;1205;47.984;7.668;2022-07-09T07:14:28;26.00;71.50
2389;DHT22;1205;47.984;7.668;2022-07-09T07:16:54;26.20;69.60
2389;DHT22;1205;47.984;7.668;2022-07-09T07:19:20;26.10;70.90
2389;DHT22;1205;47.984;7.668;2022-07-09T07:21:49;26.00;70.80
2389;DHT22;1205;47.984;7.668;2022-07-09T07:24:15;26.20;69.60
2389;DHT22;1205;47.984;7.668;2022-07-09T07:26:41;26.40;70.00
2389;DHT22;1205;47.984;7.668;2022-07-09T07:29:07;26.00;70.00
2389;DHT22;1205;47.984;7.668;2022-07-09T07:31:33;26.20;69.70
2389;DHT22;1205;47.984;7.668;2022-07-09T07:33:59;26.40;69.50
2389;DHT22;1205;47.984;7.668;2022-07-09T07:36:26;26.80;69.90
2389;DHT22;1205;47.984;7.668;2022-07-09T07:38:53;26.80;69.10
2389;DHT22;1205;47.984;7.668;2022-07-09T07:41:19;26.90;70.00
2389;DHT22;1205;47.984;7.668;2022-07-09T07:43:46;26.50;68.40
2389;DHT22;1205;47.984;7.668;2022-07-09T07:46:13;26.60;69.60
2389;DHT22;1205;47.984;7.668;2022-07-09T07:48:39;26.60;68.80
2389;DHT22;1205;47.984;7.668;2022-07-09T07:51:08;26.10;69.60
2389;DHT22;1205;47.984;7.668;2022-07-09T07:53:34;25.60;70.90
2389;DHT22;1205;47.984;7.668;2022-07-09T07:56:01;25.80;69.90
2389;DHT22;1205;47.984;7.668;2022-07-09T07:58:27;26.40;70.80
2389;DHT22;1205;47.984;7.668;2022-07-09T08:00:52;26.50;69.30
2389;DHT22;1205;47.984;7.668;2022-07-09T08:03:18;26.30;69.00
2389;DHT22;1205;47.984;7.668;2022-07-09T08:05:44;26.70;68.60
2389;DHT22;1205;47.984;7.668;2022-07-09T08:08:10;25.90;68.20
2389;DHT22;1205;47.984;7.668;2022-07-09T08:10:35;26.00;69.00
2389;DHT22;1205;47.984;7.668;2022-07-09T08:13:01;25.60;68.90
2389;DHT22;1205;47.984;7.668;2022-07-09T08:15:27;25.80;69.60
2389;DHT22;1205;47.984;7.668;2022-07-09T08:17:53;25.60;69.20
2389;DHT22;1205;47.984;7.668;2022-07-09T08:20:19;26.20;67.80
2389;DHT22;1205;47.984;7.668;2022-07-09T08:22:46;26.00;67.80
2389;DHT22;1205;47.984;7.668;2022-07-09T08:25:11;25.90;67.40
2389;DHT22;1205;47.984;7.668;2022-07-09T08:27:37;26.40;67.90
2389;DHT22;1205;47.984;7.668;2022-07-09T08:30:04;26.50;67.40
2389;DHT22;1205;47.984;7.668;2022-07-09T08:32:29;26.10;66.60
2389;DHT22;1205;47.984;7.668;2022-07-09T08:34:55;26.70;67.80
2389;DHT22;1205;47.984;7.668;2022-07-09T08:37:22;27.70;67.50
2389;DHT22;1205;47.984;7.668;2022-07-09T08:39:48;27.30;67.60
2389;DHT22;1205;47.984;7.668;2022-07-09T08:42:14;27.30;69.50
2389;DHT22;1205;47.984;7.668;2022-07-09T08:44:40;27.30;66.90
2389;DHT22;1205;47.984;7.668;2022-07-09T08:47:10;27.60;67.50
2389;DHT22;1205;47.984;7.668;2022-07-09T08:49:37;27.80;66.30
2389;DHT22;1205;47.984;7.668;2022-07-09T08:52:06;28.40;66.80
2389;DHT22;1205;47.984;7.668;2022-07-09T08:54:32;28.50;66.30
2389;DHT22;1205;47.984;7.668;2022-07-09T08:56:59;28.80;65.70
2389;DHT22;1205;47.984;7.668;2022-07-09T08:59:24;28.90;64.70
2389;DHT22;1205;47.984;7.668;2022-07-09T09:01:50;28.90;65.30
2389;DHT22;1205;47.984;7.668;2022-07-09T09:04:17;28.20;66.00
2389;DHT22;1205;47.984;7.668;2022-07-09T09:06:43;28.20;66.70
2389;DHT22;1205;47.984;7.668;2022-07-09T09:09:09;28.70;67.30
2389;DHT22;1205;47.984;7.668;2022-07-09T09:11:37;27.90;66.80
2389;DHT22;1205;47.984;7.668;2022-07-09T09:14:03;27.90;67.70
2389;DHT22;1205;47.984;7.668;2022-07-09T09:16:29;27.10;68.60
2389;DHT22;1205;47.984;7.668;2022-07-09T09:18:55;27.40;70.70
2389;DHT22;1205;47.984;7.668;2022-07-09T09:21:23;27.30;69.40
2389;DHT22;1205;47.984;7.668;2022-07-09T09:23:51;27.40;68.50
2389;DHT22;1205;47.984;7.668;2022-07-09T09:26:22;26.60;70.50
2389;DHT22;1205;47.984;7.668;2022-07-09T09:28:53;26.80;70.80
2389;DHT22;1205;47.984;7.668;2022-07-09T09:31:25;26.80;71.80
2389;DHT22;1205;47.984;7.668;2022-07-09T09:39:20;25.90;72.00
2389;DHT22;1205;47.984;7.668;2022-07-09T09:44:19;25.80;72.60
2389;DHT22;1205;47.984;7.668;2022-07-09T09:46:47;25.90;73.80
2389;DHT22;1205;47.984;7.668;2022-07-09T09:49:17;26.00;72.90
2389;DHT22;1205;47.984;7.668;2022-07-09T09:52:04;26.10;73.00
2389;DHT22;1205;47.984;7.668;2022-07-09T09:54:38;26.40;73.80
2389;DHT22;1205;47.984;7.668;2022-07-09T09:57:09;26.20;72.90
2389;DHT22;1205;47.984;7.668;2022-07-09T09:59:37;25.80;72.90
2389;DHT22;1205;47.984;7.668;2022-07-09T10:02:09;25.60;73.60
2389;DHT22;1205;47.984;7.668;2022-07-09T10:04:39;25.70;74.10
2389;DHT22;1205;47.984;7.668;2022-07-09T10:07:11;25.70;72.40
2389;DHT22;1205;47.984;7.668;2022-07-09T10:09:37;26.30;72.60
2389;DHT22;1205;47.984;7.668;2022-07-09T10:12:06;26.20;71.50
2389;DHT22;1205;47.984;7.668;2022-07-09T10:14:36;25.60;71.50
2389;DHT22;1205;47.984;7.668;2022-07-09T10:17:10;25.80;73.10
2389;DHT22;1205;47.984;7.668;2022-07-09T10:19:37;26.10;73.90
2389;DHT22;1205;47.984;7.668;2022-07-09T10:22:06;25.90;71.20
2389;DHT22;1205;47.984;7.668;2022-07-09T10:24:34;26.30;72.60
2389;DHT22;1205;47.984;7.668;2022-07-09T10:27:11;26.60;71.00
2389;DHT22;1205;47.984;7.668;2022-07-09T10:29:57;26.50;69.10
2389;DHT22;1205;47.984;7.668;2022-07-09T10:32:31;26.10;68.90
2389;DHT22;1205;47.984;7.668;2022-07-09T10:35:05;26.30;69.50
2389;DHT22;1205;47.984;7.668;2022-07-09T10:37:43;26.50;67.90
2389;DHT22;1205;47.984;7.668;2022-07-09T10:40:13;26.50;67.40
2389;DHT22;1205;47.984;7.668;2022-07-09T10:43:00;26.60;69.50
2389;DHT22;1205;47.984;7.668;2022-07-09T10:48:06;25.90;68.10
2389;DHT22;1205;47.984;7.668;2022-07-09T10:50:44;26.00;68.30
2389;DHT22;1205;47.984;7.668;2022-07-09T10:53:14;25.80;69.70
2389;DHT22;1205;47.984;7.668;2022-07-09T10:55:44;26.30;70.40
2389;DHT22;1205;47.984;7.668;2022-07-09T10:58:19;26.40;68.90
2389;DHT22;1205;47.984;7.668;2022-07-09T11:01:00;26.50;67.30
2389;DHT22;1205;47.984;7.668;2022-07-09T11:03:27;26.30;66.20
2389;DHT22;1205;47.984;7.668;2022-07-09T11:05:54;26.20;67.50
2389;DHT22;1205;47.984;7.668;2022-07-09T11:08:20;26.20;65.70
2389;DHT22;1205;47.984;7.668;2022-07-09T11:10:48;26.20;67.00
2389;DHT22;1205;47.984;7.668;2022-07-09T11:13:16;26.30;66.80
2389;DHT22;1205;47.984;7.668;2022-07-09T11:15:44;26.40;66.30
2389;DHT22;1205;47.984;7.668;2022-07-09T11:18:12;26.20;65.50
2389;DHT22;1205;47.984;7.668;2022-07-09T11:20:50;26.10;65.70
2389;DHT22;1205;47.984;7.668;2022-07-09T11:23:16;26.10;65.70
2389;DHT22;1205;47.984;7.668;2022-07-09T11:25:45;26.20;64.60
2389;DHT22;1205;47.984;7.668;2022-07-09T11:28:24;26.00;64.60
2389;DHT22;1205;47.984;7.668;2022-07-09T11:31:04;26.10;65.90
2389;DHT22;1205;47.984;7.668;2022-07-09T11:33:31;26.00;66.10
2389;DHT22;1205;47.984;7.668;2022-07-09T11:36:18;26.10;66.40
2389;DHT22;1205;47.984;7.668;2022-07-09T11:38:54;26.10;66.30
2389;DHT22;1205;47.984;7.668;2022-07-09T11:41:23;26.00;66.30
2389;DHT22;1205;47.984;7.668;2022-07-09T11:43:49;26.10;66.50
2389;DHT22;1205;47.984;7.668;2022-07-09T11:46:25;26.10;66.70
2389;DHT22;1205;47.984;7.668;2022-07-09T11:48:57;26.20;66.90
2389;DHT22;1205;47.984;7.668;2022-07-09T11:51:41;26.10;66.80
2389;DHT22;1205;47.984;7.668;2022-07-09T11:54:08;26.00;67.40
2389;DHT22;1205;47.984;7.668;2022-07-09T11:56:44;26.10;68.00
2389;DHT22;1205;47.984;7.668;2022-07-09T11:59:31;26.10;67.20
2389;DHT22;1205;47.984;7.668;2022-07-09T12:02:02;26.10;67.50
2389;DHT22;1205;47.984;7.668;2022-07-09T12:04:29;26.10;66.80
2389;DHT22;1205;47.984;7.668;2022-07-09T12:07:10;26.10;68.00
2389;DHT22;1205;47.984;7.668;2022-07-09T12:09:41;26.20;68.80
2389;DHT22;1205;47.984;7.668;2022-07-09T12:12:07;26.30;67.40
2389;DHT22;1205;47.984;7.668;2022-07-09T12:18:00;26.20;66.50
2389;DHT22;1205;47.984;7.668;2022-07-09T12:20:28;26.40;66.90
2389;DHT22;1205;47.984;7.668;2022-07-09T12:22:54;26.30;66.50
2389;DHT22;1205;47.984;7.668;2022-07-09T12:25:21;26.30;67.30
2389;DHT22;1205;47.984;7.668;2022-07-09T12:27:47;26.30;66.90
2389;DHT22;1205;47.984;7.668;2022-07-09T12:30:15;26.20;66.90
2389;DHT22;1205;47.984;7.668;2022-07-09T12:32:41;26.30;66.90
2389;DHT22;1205;47.984;7.668;2022-07-09T12:35:11;26.40;67.40
2389;DHT22;1205;47.984;7.668;2022-07-09T12:37:38;26.50;67.50
2389;DHT22;1205;47.984;7.668;2022-07-09T12:40:05;26.50;70.10
2389;DHT22;1205;47.984;7.668;2022-07-09T12:42:35;26.50;66.80
2389;DHT22;1205;47.984;7.668;2022-07-09T12:45:03;26.40;66.60
2389;DHT22;1205;47.984;7.668;2022-07-09T12:47:36;26.50;67.70
2389;DHT22;1205;47.984;7.668;2022-07-09T12:50:03;26.60;67.40
2389;DHT22;1205;47.984;7.668;2022-07-09T12:52:31;26.70;67.20
2389;DHT22;1205;47.984;7.668;2022-07-09T12:55:01;26.70;67.10
2389;DHT22;1205;47.984;7.668;2022-07-09T12:57:29;26.70;66.90
2389;DHT22;1205;47.984;7.668;2022-07-09T12:59:55;26.60;66.70
2389;DHT22;1205;47.984;7.668;2022-07-09T13:02:22;26.50;66.40
2389;DHT22;1205;47.984;7.668;2022-07-09T13:04:48;26.50;66.00
2389;DHT22;1205;47.984;7.668;2022-07-09T13:07:14;26.50;66.50
2389;DHT22;1205;47.984;7.668;2022-07-09T13:09:40;26.50;66.50
2389;DHT22;1205;47.984;7.668;2022-07-09T13:12:06;26.60;66.40
2389;DHT22;1205;47.984;7.668;2022-07-09T13:14:32;26.60;67.10
2389;DHT22;1205;47.984;7.668;2022-07-09T13:17:05;26.60;66.30
2389;DHT22;1205;47.984;7.668;2022-07-09T13:19:31;26.50;66.20
2389;DHT22;1205;47.984;7.668;2022-07-09T13:21:59;26.50;66.50
2389;DHT22;1205;47.984;7.668;2022-07-09T13:24:28;26.60;66.10
2389;DHT22;1205;47.984;7.668;2022-07-09T13:26:55;26.50;65.90
2389;DHT22;1205;47.984;7.668;2022-07-09T13:29:23;26.70;67.10
2389;DHT22;1205;47.984;7.668;2022-07-09T13:31:49;26.80;66.70
2389;DHT22;1205;47.984;7.668;2022-07-09T13:34:15;26.50;64.90
2389;DHT22;1205;47.984;7.668;2022-07-09T13:36:46;26.70;65.40
2389;DHT22;1205;47.984;7.668;2022-07-09T13:39:18;26.70;65.60
2389;DHT22;1205;47.984;7.668;2022-07-09T13:41:44;26.70;66.20
2389;DHT22;1205;47.984;7.668;2022-07-09T13:44:09;26.80;65.70
2389;DHT22;1205;47.984;7.668;2022-07-09T13:46:35;26.70;66.00
2389;DHT22;1205;47.984;7.668;2022-07-09T13:49:01;26.80;66.20
2389;DHT22;1205;47.984;7.668;2022-07-09T13:51:27;26.80;65.00
2389;DHT22;1205;47.984;7.668;2022-07-09T13:53:52;26.80;65.10
2389;DHT22;1205;47.984;7.668;2022-07-09T13:56:18;26.80;65.00
2389;DHT22;1205;47.984;7.668;2022-07-09T13:58:44;26.90;64.60
2389;DHT22;1205;47.984;7.668;2022-07-09T14:01:10;26.90;65.10
2389;DHT22;1205;47.984;7.668;2022-07-09T14:03:35;27.10;65.20
2389;DHT22;1205;47.984;7.668;2022-07-09T14:06:01;27.10;65.20
2389;DHT22;1205;47.984;7.668;2022-07-09T14:08:27;27.10;65.20
2389;DHT22;1205;47.984;7.668;2022-07-09T14:10:54;27.10;65.40
2389;DHT22;1205;47.984;7.668;2022-07-09T14:13:26;27.10;64.10
2389;DHT22;1205;47.984;7.668;2022-07-09T14:15:54;27.00;63.70
2389;DHT22;1205;47.984;7.668;2022-07-09T14:18:20;27.10;64.30
2389;DHT22;1205;47.984;7.668;2022-07-09T14:20:46;27.20;64.80
2389;DHT22;1205;47.984;7.668;2022-07-09T14:23:12;27.30;65.50
2389;DHT22;1205;47.984;7.668;2022-07-09T14:25:38;27.20;64.70
2389;DHT22;1205;47.984;7.668;2022-07-09T14:28:03;27.30;64.70
2389;DHT22;1205;47.984;7.668;2022-07-09T14:30:29;27.40;65.00
2389;DHT22;1205;47.984;7.668;2022-07-09T14:32:55;27.40;64.90
2389;DHT22;1205;47.984;7.668;2022-07-09T14:35:21;27.50;64.70
2389;DHT22;1205;47.984;7.668;2022-07-09T14:37:47;27.60;63.90
2389;DHT22;1205;47.984;7.668;2022-07-09T14:40:13;27.60;63.80
2389;DHT22;1205;47.984;7.668;2022-07-09T14:42:38;27.70;64.90
2389;DHT22;1205;47.984;7.668;2022-07-09T14:45:06;27.80;62.80
2389;DHT22;1205;47.984;7.668;2022-07-09T14:47:32;28.00;63.60
2389;DHT22;1205;47.984;7.668;2022-07-09T14:49:58;28.20;64.30
2389;DHT22;1205;47.984;7.668;2022-07-09T14:52:23;28.20;64.10
2389;DHT22;1205;47.984;7.668;2022-07-09T14:54:49;28.10;63.00
2389;DHT22;1205;47.984;7.668;2022-07-09T14:57:15;28.00;63.70
2389;DHT22;1205;47.984;7.668;2022-07-09T14:59:41;28.00;64.70
2389;DHT22;1205;47.984;7.668;2022-07-09T15:02:06;28.00;64.00
2389;DHT22;1205;47.984;7.668;2022-07-09T15:04:32;27.90;63.90
2389;DHT22;1205;47.984;7.668;2022-07-09T15:06:58;27.90;64.40
2389;DHT22;1205;47.984;7.668;2022-07-09T15:09:24;27.70;63.80
2389;DHT22;1205;47.984;7.668;2022-07-09T15:11:50;27.50;63.80
2389;DHT22;1205;47.984;7.668;2022-07-09T15:14:15;27.50;64.00
2389;DHT22;1205;47.984;7.668;2022-07-09T15:16:41;27.60;64.40
2389;DHT22;1205;47.984;7.668;2022-07-09T15:19:07;27.60;64.80
2389;DHT22;1205;47.984;7.668;2022-07-09T15:21:33;27.60;63.60
2389;DHT22;1205;47.984;7.668;2022-07-09T15:23:59;27.60;63.80
2389;DHT22;1205;47.984;7.668;2022-07-09T15:26:25;27.60;63.30
2389;DHT22;1205;47.984;7.668;2022-07-09T15:28:51;27.70;64.10
2389;DHT22;1205;47.984;7.668;2022-07-09T15:31:17;27.70;64.40
2389;DHT22;1205;47.984;7.668;2022-07-09T15:33:45;27.70;63.50
2389;DHT22;1205;47.984;7.668;2022-07-09T15:36:11;27.80;62.80
2389;DHT22;1205;47.984;7.668;2022-07-09T15:38:36;27.70;62.00
2389;DHT22;1205;47.984;7.668;2022-07-09T15:41:02;27.70;62.00
2389;DHT22;1205;47.984;7.668;2022-07-09T15:43:28;27.80;61.40
2389;DHT22;1205;47.984;7.668;2022-07-09T15:45:53;27.90;61.40
2389;DHT22;1205;47.984;7.668;2022-07-09T15:48:19;27.80;61.00
2389;DHT22;1205;47.984;7.668;2022-07-09T15:50:48;28.00;61.50
2389;DHT22;1205;47.984;7.668;2022-07-09T15:53:14;28.10;60.70
2389;DHT22;1205;47.984;7.668;2022-07-09T15:55:39;28.00;60.50
2389;DHT22;1205;47.984;7.668;2022-07-09T15:58:05;28.00;60.80
2389;DHT22;1205;47.984;7.668;2022-07-09T16:00:31;27.90;60.70
2389;DHT22;1205;47.984;7.668;2022-07-09T16:02:57;28.00;61.00
2389;DHT22;1205;47.984;7.668;2022-07-09T16:05:23;27.90;61.50
2389;DHT22;1205;47.984;7.668;2022-07-09T16:07:49;28.10;62.40
2389;DHT22;1205;47.984;7.668;2022-07-09T16:10:15;28.10;62.40
2389;DHT22;1205;47.984;7.668;2022-07-09T16:12:41;28.10;62.30
2389;DHT22;1205;47.984;7.668;2022-07-09T16:15:19;28.10;63.00